sensor_id;sensor_type;location;lat;lon;timestamp;temperature;humidity
55313;DHT22;46892;45.668;11.756;2023-07-02T00:02:25;21.60;87.60
55313;DHT22;46892;45.668;11.756;2023-07-02T00:04:51;21.50;87.70
55313;DHT22;46892;45.668;11.756;2023-07-02T00:07:17;21.50;87.70
55313;DHT22;46892;45.668;11.756;2023-07-02T00:09:42;21.50;87.80
55313;DHT22;46892;45.668;11.756;2023-07-02T00:12:08;21.50;87.80
55313;DHT22;46892;45.668;11.756;2023-07-02T00:14:34;21.50;87.70
55313;DHT22;46892;45.668;11.756;2023-07-02T00:17:00;21.50;87.60
55313;DHT22;46892;45.668;11.756;2023-07-02T00:19:26;21.50;87.60
55313;DHT22;46892;45.668;11.756;2023-07-02T00:21:51;21.50;87.40
55313;DHT22;46892;45.668;11.756;2023-07-02T00:24:19;21.50;87.30
55313;DHT22;46892;45.668;11.756;2023-07-02T00:26:44;21.50;87.30
55313;DHT22;46892;45.668;11.756;2023-07-02T00:29:11;21.50;86.50
55313;DHT22;46892;45.668;11.756;2023-07-02T00:31:37;21.50;86.40
55313;DHT22;46892;45.668;11.756;2023-07-02T00:34:03;21.40;86.60
55313;DHT22;46892;45.668;11.756;2023-07-02T00:36:29;21.40;86.40
55313;DHT22;46892;45.668;11.756;2023-07-02T00:38:55;21.30;86.30
55313;DHT22;46892;45.668;11.756;2023-07-02T00:41:22;21.30;86.40
55313;DHT22;46892;45.668;11.756;2023-07-02T00:43:47;21.20;86.20
55313;DHT22;46892;45.668;11.756;2023-07-02T00:46:14;21.20;86.60
55313;DHT22;46892;45.668;11.756;2023-07-02T00:48:50;21.20;86.60
55313;DHT22;46892;45.668;11.756;2023-07-02T00:51:20;21.20;85.90
55313;DHT22;46892;45.668;11.756;2023-07-02T00:53:48;21.20;85.70
55313;DHT22;46892;45.668;11.756;2023-07-02T00:56:15;21.20;85.70
55313;DHT22;46892;45.668;11.756;2023-07-02T00:58:42;21.10;86.30
55313;DHT22;46892;45.668;11.756;2023-07-02T01:01:17;21.00;86.30
55313;DHT22;46892;45.668;11.756;2023-07-02T01:04:03;21.00;86.40
55313;DHT22;46892;45.668;11.756;2023-07-02T01:06:32;21.00;86.30
55313;DHT22;46892;45.668;11.756;2023-07-02T01:09:00;21.00;86.40
55313;DHT22;46892;45.668;11.756;2023-07-02T01:11:50;20.90;86.40
55313;DHT22;46892;45.668;11.756;2023-07-02T01:14:25;21.00;86.80
55313;DHT22;46892;45.668;11.756;2023-07-02T01:16:53;20.90;86.90
55313;DHT22;46892;45.668;11.756;2023-07-02T01:19:30;21.00;86.60
55313;DHT22;46892;45.668;11.756;2023-07-02T01:21:58;20.90;86.60
55313;DHT22;46892;45.668;11.756;2023-07-02T01:24:24;20.90;86.90
55313;DHT22;46892;45.668;11.756;2023-07-02T01:26:50;20.90;86.80
55313;DHT22;46892;45.668;11.756;2023-07-02T01:29:17;20.90;86.80
55313;DHT22;46892;45.668;11.756;2023-07-02T01:31:43;20.90;86.80
55313;DHT22;46892;45.668;11.756;2023-07-02T01:34:09;20.90;86.70
55313;DHT22;46892;45.668;11.756;2023-07-02T01:36:35;20.90;86.20
55313;DHT22;46892;45.668;11.756;2023-07-02T01:39:01;20.90;86.30
55313;DHT22;46892;45.668;11.756;2023-07-02T01:41:27;20.90;86.70
55313;DHT22;46892;45.668;11.756;2023-07-02T01:43:52;20.90;86.70
55313;DHT22;46892;45.668;11.756;2023-07-02T01:46:18;20.90;86.60
55313;DHT22;46892;45.668;11.756;2023-07-02T01:48:44;20.90;86.50
55313;DHT22;46892;45.668;11.756;2023-07-02T01:51:09;21.00;86.50
55313;DHT22;46892;45.668;11.756;2023-07-02T01:53:35;20.90;86.60
55313;DHT22;46892;45.668;11.756;2023-07-02T01:56:01;21.00;86.60
55313;DHT22;46892;45.668;11.756;2023-07-02T01:58:27;21.00;86.70
55313;DHT22;46892;45.668;11.756;2023-07-02T02:00:52;21.00;87.00
55313;DHT22;46892;45.668;11.756;2023-07-02T02:03:18;20.90;86.90
55313;DHT22;46892;45.668;11.756;2023-07-02T02:05:44;20.90;86.90
55313;DHT22;46892;45.668;11.756;2023-07-02T02:08:10;20.90;86.90
55313;DHT22;46892;45.668;11.756;2023-07-02T02:10:35;20.90;86.90
55313;DHT22;46892;45.668;11.756;2023-07-02T02:13:01;20.90;86.80
55313;DHT22;46892;45.668;11.756;2023-07-02T02:15:27;20.90;86.80
55313;DHT22;46892;45.668;11.756;2023-07-02T02:17:52;20.90;86.80
55313;DHT22;46892;45.668;11.756;2023-07-02T02:20:19;20.90;86.60
55313;DHT22;46892;45.668;11.756;2023-07-02T02:22:44;20.80;86.50
55313;DHT22;46892;45.668;11.756;2023-07-02T02:25:10;20.90;86.20
55313;DHT22;46892;45.668;11.756;2023-07-02T02:27:36;20.90;86.30
55313;DHT22;46892;45.668;11.756;2023-07-02T02:30:02;20.90;86.50
55313;DHT22;46892;45.668;11.756;2023-07-02T02:32:27;20.90;86.50
55313;DHT22;46892;45.668;11.756;2023-07-02T02:34:53;20.90;86.60
55313;DHT22;46892;45.668;11.756;2023-07-02T02:37:20;20.90;86.60
55313;DHT22;46892;45.668;11.756;2023-07-02T02:39:47;21.00;86.80
55313;DHT22;46892;45.668;11.756;2023-07-02T02:42:13;21.00;86.70
55313;DHT22;46892;45.668;11.756;2023-07-02T02:44:39;21.00;86.40
55313;DHT22;46892;45.668;11.756;2023-07-02T02:47:04;21.00;86.50
55313;DHT22;46892;45.668;11.756;2023-07-02T02:49:31;21.00;86.40
55313;DHT22;46892;45.668;11.756;2023-07-02T02:51:57;21.00;86.50
55313;DHT22;46892;45.668;11.756;2023-07-02T02:54:22;21.00;86.10
55313;DHT22;46892;45.668;11.756;2023-07-02T02:56:48;21.00;86.20
55313;DHT22;46892;45.668;11.756;2023-07-02T02:59:14;21.10;86.60
55313;DHT22;46892;45.668;11.756;2023-07-02T03:01:39;21.10;86.70
55313;DHT22;46892;45.668;11.756;2023-07-02T03:04:05;21.10;86.80
55313;DHT22;46892;45.668;11.756;2023-07-02T03:06:33;21.10;86.50
55313;DHT22;46892;45.668;11.756;2023-07-02T03:08:59;21.10;86.40
55313;DHT22;46892;45.668;11.756;2023-07-02T03:11:25;21.10;86.20
55313;DHT22;46892;45.668;11.756;2023-07-02T03:13:51;21.10;86.80
55313;DHT22;46892;45.668;11.756;2023-07-02T03:16:16;21.00;86.70
55313;DHT22;46892;45.668;11.756;2023-07-02T03:18:42;21.00;86.70
55313;DHT22;46892;45.668;11.756;2023-07-02T03:21:08;21.00;86.60
55313;DHT22;46892;45.668;11.756;2023-07-02T03:23:35;20.90;86.60
55313;DHT22;46892;45.668;11.756;2023-07-02T03:26:01;20.80;86.70
55313;DHT22;46892;45.668;11.756;2023-07-02T03:28:26;20.80;87.10
55313;DHT22;46892;45.668;11.756;2023-07-02T03:30:52;20.80;87.30
55313;DHT22;46892;45.668;11.756;2023-07-02T03:33:18;20.80;86.80
55313;DHT22;46892;45.668;11.756;2023-07-02T03:35:44;20.80;87.00
55313;DHT22;46892;45.668;11.756;2023-07-02T03:38:10;20.70;86.90
55313;DHT22;46892;45.668;11.756;2023-07-02T03:40:35;20.70;87.10
55313;DHT22;46892;45.668;11.756;2023-07-02T03:43:01;20.70;86.70
55313;DHT22;46892;45.668;11.756;2023-07-02T03:45:27;20.70;86.70
55313;DHT22;46892;45.668;11.756;2023-07-02T03:47:53;20.70;86.70
55313;DHT22;46892;45.668;11.756;2023-07-02T03:50:18;20.70;86.50
55313;DHT22;46892;45.668;11.756;2023-07-02T03:52:44;20.70;86.00
55313;DHT22;46892;45.668;11.756;2023-07-02T03:55:10;20.70;85.90
55313;DHT22;46892;45.668;11.756;2023-07-02T03:57:36;20.60;86.20
55313;DHT22;46892;45.668;11.756;2023-07-02T04:00:01;20.60;86.60
55313;DHT22;46892;45.668;11.756;2023-07-02T04:02:30;20.60;86.50
55313;DHT22;46892;45.668;11.756;2023-07-02T04:04:56;20.60;86.40
55313;DHT22;46892;45.668;11.756;2023-07-02T04:07:21;20.50;86.60
55313;DHT22;46892;45.668;11.756;2023-07-02T04:09:47;20.60;86.70
55313;DHT22;46892;45.668;11.756;2023-07-02T04:12:13;20.60;86.60
55313;DHT22;46892;45.668;11.756;2023-07-02T04:14:39;20.60;86.60
55313;DHT22;46892;45.668;11.756;2023-07-02T04:17:05;20.60;85.70
55313;DHT22;46892;45.668;11.756;2023-07-02T04:19:31;20.60;85.80
55313;DHT22;46892;45.668;11.756;2023-07-02T04:21:56;20.60;85.80
55313;DHT22;46892;45.668;11.756;2023-07-02T04:24:22;20.50;86.00
55313;DHT22;46892;45.668;11.756;2023-07-02T04:26:48;20.40;86.20
55313;DHT22;46892;45.668;11.756;2023-07-02T04:29:13;20.30;86.20
55313;DHT22;46892;45.668;11.756;2023-07-02T04:31:39;20.30;86.50
55313;DHT22;46892;45.668;11.756;2023-07-02T04:34:05;20.30;86.70
55313;DHT22;46892;45.668;11.756;2023-07-02T04:36:31;20.30;86.70
55313;DHT22;46892;45.668;11.756;2023-07-02T04:38:57;20.30;87.00
55313;DHT22;46892;45.668;11.756;2023-07-02T04:41:23;20.40;87.40
55313;DHT22;46892;45.668;11.756;2023-07-02T04:43:49;20.50;87.60
55313;DHT22;46892;45.668;11.756;2023-07-02T04:46:14;20.60;87.40
55313;DHT22;46892;45.668;11.756;2023-07-02T04:48:40;20.70;87.30
55313;DHT22;46892;45.668;11.756;2023-07-02T04:51:06;20.70;87.40
55313;DHT22;46892;45.668;11.756;2023-07-02T04:53:32;20.80;87.00
55313;DHT22;46892;45.668;11.756;2023-07-02T04:55:57;20.90;86.80
55313;DHT22;46892;45.668;11.756;2023-07-02T04:58:23;21.00;86.40
55313;DHT22;46892;45.668;11.756;2023-07-02T05:00:49;21.10;86.00
55313;DHT22;46892;45.668;11.756;2023-07-02T05:03:15;21.20;85.60
55313;DHT22;46892;45.668;11.756;2023-07-02T05:05:41;21.30;85.40
55313;DHT22;46892;45.668;11.756;2023-07-02T05:08:06;21.30;85.50
55313;DHT22;46892;45.668;11.756;2023-07-02T05:10:32;21.30;85.30
55313;DHT22;46892;45.668;11.756;2023-07-02T05:12:58;21.30;85.30
55313;DHT22;46892;45.668;11.756;2023-07-02T05:15:24;21.30;85.20
55313;DHT22;46892;45.668;11.756;2023-07-02T05:17:50;21.20;85.20
55313;DHT22;46892;45.668;11.756;2023-07-02T05:20:15;21.20;85.30
55313;DHT22;46892;45.668;11.756;2023-07-02T05:22:41;21.20;85.70
55313;DHT22;46892;45.668;11.756;2023-07-02T05:25:07;21.20;85.90
55313;DHT22;46892;45.668;11.756;2023-07-02T05:27:33;21.20;86.00
55313;DHT22;46892;45.668;11.756;2023-07-02T05:29:59;21.20;86.10
55313;DHT22;46892;45.668;11.756;2023-07-02T05:32:24;21.30;86.10
55313;DHT22;46892;45.668;11.756;2023-07-02T05:34:50;21.30;86.10
55313;DHT22;46892;45.668;11.756;2023-07-02T05:37:16;21.20;85.90
55313;DHT22;46892;45.668;11.756;2023-07-02T05:39:42;21.20;86.00
55313;DHT22;46892;45.668;11.756;2023-07-02T05:42:08;21.40;85.60
55313;DHT22;46892;45.668;11.756;2023-07-02T05:44:33;21.40;85.60
55313;DHT22;46892;45.668;11.756;2023-07-02T05:46:59;21.50;84.90
55313;DHT22;46892;45.668;11.756;2023-07-02T05:49:25;21.50;84.40
55313;DHT22;46892;45.668;11.756;2023-07-02T05:51:52;21.50;84.50
55313;DHT22;46892;45.668;11.756;2023-07-02T05:54:18;21.50;84.50
55313;DHT22;46892;45.668;11.756;2023-07-02T05:56:43;21.50;84.30
55313;DHT22;46892;45.668;11.756;2023-07-02T05:59:09;21.50;84.10
55313;DHT22;46892;45.668;11.756;2023-07-02T06:01:35;21.50;83.90
55313;DHT22;46892;45.668;11.756;2023-07-02T06:04:02;21.40;84.00
55313;DHT22;46892;45.668;11.756;2023-07-02T06:06:27;21.50;84.60
55313;DHT22;46892;45.668;11.756;2023-07-02T06:08:53;21.50;84.60
55313;DHT22;46892;45.668;11.756;2023-07-02T06:11:19;21.50;84.40
55313;DHT22;46892;45.668;11.756;2023-07-02T06:13:44;21.50;84.20
55313;DHT22;46892;45.668;11.756;2023-07-02T06:16:10;21.60;84.30
55313;DHT22;46892;45.668;11.756;2023-07-02T06:18:36;21.70;84.50
55313;DHT22;46892;45.668;11.756;2023-07-02T06:21:02;21.80;84.10
55313;DHT22;46892;45.668;11.756;2023-07-02T06:23:30;21.80;83.60
55313;DHT22;46892;45.668;11.756;2023-07-02T06:25:55;21.80;83.00
55313;DHT22;46892;45.668;11.756;2023-07-02T06:28:25;21.90;83.30
55313;DHT22;46892;45.668;11.756;2023-07-02T06:30:51;22.10;82.70
55313;DHT22;46892;45.668;11.756;2023-07-02T06:33:17;22.10;82.30
55313;DHT22;46892;45.668;11.756;2023-07-02T06:35:43;22.10;81.80
55313;DHT22;46892;45.668;11.756;2023-07-02T06:38:09;22.10;82.40
55313;DHT22;46892;45.668;11.756;2023-07-02T06:40:34;22.10;82.50
55313;DHT22;46892;45.668;11.756;2023-07-02T06:43:00;22.20;81.90
55313;DHT22;46892;45.668;11.756;2023-07-02T06:45:26;22.30;82.10
55313;DHT22;46892;45.668;11.756;2023-07-02T06:47:51;22.30;81.60
55313;DHT22;46892;45.668;11.756;2023-07-02T06:50:17;22.30;81.80
55313;DHT22;46892;45.668;11.756;2023-07-02T06:52:43;22.30;81.90
55313;DHT22;46892;45.668;11.756;2023-07-02T06:55:09;22.30;81.70
55313;DHT22;46892;45.668;11.756;2023-07-02T06:57:34;22.30;81.40
55313;DHT22;46892;45.668;11.756;2023-07-02T07:00:00;22.40;81.10
55313;DHT22;46892;45.668;11.756;2023-07-02T07:02:27;22.50;81.30
55313;DHT22;46892;45.668;11.756;2023-07-02T07:04:53;22.50;81.80
55313;DHT22;46892;45.668;11.756;2023-07-02T07:07:18;22.50;81.20
55313;DHT22;46892;45.668;11.756;2023-07-02T07:09:44;22.60;81.00
55313;DHT22;46892;45.668;11.756;2023-07-02T07:12:10;22.60;80.50
55313;DHT22;46892;45.668;11.756;2023-07-02T07:14:36;22.70;80.50
55313;DHT22;46892;45.668;11.756;2023-07-02T07:17:02;22.70;81.10
55313;DHT22;46892;45.668;11.756;2023-07-02T07:19:28;22.80;81.20
55313;DHT22;46892;45.668;11.756;2023-07-02T07:21:54;22.90;80.60
55313;DHT22;46892;45.668;11.756;2023-07-02T07:24:19;23.00;80.70
55313;DHT22;46892;45.668;11.756;2023-07-02T07:26:45;23.10;80.90
55313;DHT22;46892;45.668;11.756;2023-07-02T07:29:11;23.20;80.20
55313;DHT22;46892;45.668;11.756;2023-07-02T07:31:37;23.20;80.00
55313;DHT22;46892;45.668;11.756;2023-07-02T07:34:03;23.20;79.70
55313;DHT22;46892;45.668;11.756;2023-07-02T07:36:29;23.20;79.40
55313;DHT22;46892;45.668;11.756;2023-07-02T07:38:54;23.20;79.90
55313;DHT22;46892;45.668;11.756;2023-07-02T07:41:20;23.10;77.70
55313;DHT22;46892;45.668;11.756;2023-07-02T07:43:46;23.10;78.20
55313;DHT22;46892;45.668;11.756;2023-07-02T07:46:11;23.10;78.50
55313;DHT22;46892;45.668;11.756;2023-07-02T07:48:37;23.10;78.50
55313;DHT22;46892;45.668;11.756;2023-07-02T07:51:04;23.20;78.70
55313;DHT22;46892;45.668;11.756;2023-07-02T07:53:30;23.20;78.80
55313;DHT22;46892;45.668;11.756;2023-07-02T07:55:56;23.20;79.20
55313;DHT22;46892;45.668;11.756;2023-07-02T07:58:22;23.30;78.90
55313;DHT22;46892;45.668;11.756;2023-07-02T08:00:48;23.30;77.90
55313;DHT22;46892;45.668;11.756;2023-07-02T08:03:14;23.30;78.20
55313;DHT22;46892;45.668;11.756;2023-07-02T08:05:39;23.30;77.40
55313;DHT22;46892;45.668;11.756;2023-07-02T08:08:05;23.30;77.60
55313;DHT22;46892;45.668;11.756;2023-07-02T08:10:31;23.30;77.90
55313;DHT22;46892;45.668;11.756;2023-07-02T08:12:57;23.40;78.30
55313;DHT22;46892;45.668;11.756;2023-07-02T08:15:22;23.40;78.80
55313;DHT22;46892;45.668;11.756;2023-07-02T08:17:48;23.40;78.20
55313;DHT22;46892;45.668;11.756;2023-07-02T08:20:14;23.50;77.90
55313;DHT22;46892;45.668;11.756;2023-07-02T08:22:40;23.60;78.50
55313;DHT22;46892;45.668;11.756;2023-07-02T08:25:07;23.70;77.50
55313;DHT22;46892;45.668;11.756;2023-07-02T08:27:33;23.80;76.80
55313;DHT22;46892;45.668;11.756;2023-07-02T08:29:59;23.90;78.30
55313;DHT22;46892;45.668;11.756;2023-07-02T08:32:24;23.90;77.30
55313;DHT22;46892;45.668;11.756;2023-07-02T08:34:50;24.00;76.60
55313;DHT22;46892;45.668;11.756;2023-07-02T08:37:17;24.10;76.70
55313;DHT22;46892;45.668;11.756;2023-07-02T08:39:43;24.20;75.40
55313;DHT22;46892;45.668;11.756;2023-07-02T08:42:09;24.30;75.80
55313;DHT22;46892;45.668;11.756;2023-07-02T08:44:35;24.30;75.60
55313;DHT22;46892;45.668;11.756;2023-07-02T08:47:01;24.40;74.60
55313;DHT22;46892;45.668;11.756;2023-07-02T08:49:27;24.40;75.30
55313;DHT22;46892;45.668;11.756;2023-07-02T08:51:53;24.50;74.90
55313;DHT22;46892;45.668;11.756;2023-07-02T08:54:19;24.50;75.50
55313;DHT22;46892;45.668;11.756;2023-07-02T08:56:45;24.40;74.90
55313;DHT22;46892;45.668;11.756;2023-07-02T08:59:12;24.50;76.90
55313;DHT22;46892;45.668;11.756;2023-07-02T09:01:51;24.60;77.30
55313;DHT22;46892;45.668;11.756;2023-07-02T09:04:19;24.70;75.30
55313;DHT22;46892;45.668;11.756;2023-07-02T09:06:46;24.70;73.70
55313;DHT22;46892;45.668;11.756;2023-07-02T09:09:11;24.70;74.20
55313;DHT22;46892;45.668;11.756;2023-07-02T09:11:47;24.80;74.20
55313;DHT22;46892;45.668;11.756;2023-07-02T09:14:26;24.80;73.60
55313;DHT22;46892;45.668;11.756;2023-07-02T09:17:06;24.80;74.30
55313;DHT22;46892;45.668;11.756;2023-07-02T09:19:34;24.90;74.30
55313;DHT22;46892;45.668;11.756;2023-07-02T09:22:01;25.00;74.60
55313;DHT22;46892;45.668;11.756;2023-07-02T09:24:29;25.00;72.60
55313;DHT22;46892;45.668;11.756;2023-07-02T09:26:57;24.90;72.20
55313;DHT22;46892;45.668;11.756;2023-07-02T09:29:28;24.90;73.00
55313;DHT22;46892;45.668;11.756;2023-07-02T09:32:02;25.00;73.40
55313;DHT22;46892;45.668;11.756;2023-07-02T09:34:32;25.20;74.00
55313;DHT22;46892;45.668;11.756;2023-07-02T09:36:59;25.40;74.10
55313;DHT22;46892;45.668;11.756;2023-07-02T09:39:27;25.60;73.00
55313;DHT22;46892;45.668;11.756;2023-07-02T09:41:59;25.60;71.90
55313;DHT22;46892;45.668;11.756;2023-07-02T09:44:29;25.70;72.60
55313;DHT22;46892;45.668;11.756;2023-07-02T09:49:34;25.90;71.70
55313;DHT22;46892;45.668;11.756;2023-07-02T09:52:02;26.00;72.00
55313;DHT22;46892;45.668;11.756;2023-07-02T09:54:29;26.10;70.90
55313;DHT22;46892;45.668;11.756;2023-07-02T09:56:56;26.20;70.90
55313;DHT22;46892;45.668;11.756;2023-07-02T09:59:23;26.20;70.60
55313;DHT22;46892;45.668;11.756;2023-07-02T10:01:49;26.40;70.50
55313;DHT22;46892;45.668;11.756;2023-07-02T10:04:16;26.50;69.50
55313;DHT22;46892;45.668;11.756;2023-07-02T10:06:54;26.50;67.90
55313;DHT22;46892;45.668;11.756;2023-07-02T10:09:37;26.40;68.10
55313;DHT22;46892;45.668;11.756;2023-07-02T10:12:23;26.30;67.60
55313;DHT22;46892;45.668;11.756;2023-07-02T10:14:51;26.20;67.70
55313;DHT22;46892;45.668;11.756;2023-07-02T10:17:31;26.10;67.50
55313;DHT22;46892;45.668;11.756;2023-07-02T10:20:02;26.20;67.80
55313;DHT22;46892;45.668;11.756;2023-07-02T10:22:48;26.20;67.80
55313;DHT22;46892;45.668;11.756;2023-07-02T10:25:32;26.20;69.20
55313;DHT22;46892;45.668;11.756;2023-07-02T10:28:00;26.20;70.70
55313;DHT22;46892;45.668;11.756;2023-07-02T10:30:38;26.20;72.80
55313;DHT22;46892;45.668;11.756;2023-07-02T10:33:08;26.40;68.40
55313;DHT22;46892;45.668;11.756;2023-07-02T10:35:34;26.40;67.50
55313;DHT22;46892;45.668;11.756;2023-07-02T10:38:01;26.40;68.80
55313;DHT22;46892;45.668;11.756;2023-07-02T10:40:26;26.40;67.60
55313;DHT22;46892;45.668;11.756;2023-07-02T10:42:53;26.40;68.70
55313;DHT22;46892;45.668;11.756;2023-07-02T10:45:19;26.40;69.40
55313;DHT22;46892;45.668;11.756;2023-07-02T10:47:46;26.50;69.00
55313;DHT22;46892;45.668;11.756;2023-07-02T10:50:21;26.50;68.90
55313;DHT22;46892;45.668;11.756;2023-07-02T10:52:49;26.60;69.90
55313;DHT22;46892;45.668;11.756;2023-07-02T10:57:44;26.90;70.20
55313;DHT22;46892;45.668;11.756;2023-07-02T11:00:10;27.00;68.60
55313;DHT22;46892;45.668;11.756;2023-07-02T11:02:40;27.10;65.70
55313;DHT22;46892;45.668;11.756;2023-07-02T11:05:06;27.10;68.60
55313;DHT22;46892;45.668;11.756;2023-07-02T11:07:34;27.10;66.90
55313;DHT22;46892;45.668;11.756;2023-07-02T11:10:00;27.10;66.70
55313;DHT22;46892;45.668;11.756;2023-07-02T11:12:31;27.10;67.10
55313;DHT22;46892;45.668;11.756;2023-07-02T11:15:16;27.00;66.40
55313;DHT22;46892;45.668;11.756;2023-07-02T11:17:46;27.00;66.10
55313;DHT22;46892;45.668;11.756;2023-07-02T11:20:13;27.00;66.30
55313;DHT22;46892;45.668;11.756;2023-07-02T11:22:39;26.90;66.20
55313;DHT22;46892;45.668;11.756;2023-07-02T11:25:15;26.90;65.60
55313;DHT22;46892;45.668;11.756;2023-07-02T11:27:42;27.00;66.00
55313;DHT22;46892;45.668;11.756;2023-07-02T11:30:08;27.00;67.50
55313;DHT22;46892;45.668;11.756;2023-07-02T11:32:51;27.10;69.40
55313;DHT22;46892;45.668;11.756;2023-07-02T11:35:17;27.30;69.30
55313;DHT22;46892;45.668;11.756;2023-07-02T11:37:43;27.50;68.80
55313;DHT22;46892;45.668;11.756;2023-07-02T11:40:10;27.60;63.50
55313;DHT22;46892;45.668;11.756;2023-07-02T11:42:36;27.70;65.00
55313;DHT22;46892;45.668;11.756;2023-07-02T11:45:02;27.80;66.30
55313;DHT22;46892;45.668;11.756;2023-07-02T11:47:28;28.00;64.90
55313;DHT22;46892;45.668;11.756;2023-07-02T11:49:54;28.00;64.30
55313;DHT22;46892;45.668;11.756;2023-07-02T11:52:24;28.00;64.30
55313;DHT22;46892;45.668;11.756;2023-07-02T11:54:50;28.00;64.80
55313;DHT22;46892;45.668;11.756;2023-07-02T11:57:16;28.00;61.80
55313;DHT22;46892;45.668;11.756;2023-07-02T11:59:42;27.90;61.20
55313;DHT22;46892;45.668;11.756;2023-07-02T12:02:08;27.80;62.50
55313;DHT22;46892;45.668;11.756;2023-07-02T12:04:34;27.80;61.90
55313;DHT22;46892;45.668;11.756;2023-07-02T12:07:00;27.80;62.70
55313;DHT22;46892;45.668;11.756;2023-07-02T12:09:29;27.70;60.90
55313;DHT22;46892;45.668;11.756;2023-07-02T12:11:55;27.80;60.60
55313;DHT22;46892;45.668;11.756;2023-07-02T12:14:21;27.80;62.10
55313;DHT22;46892;45.668;11.756;2023-07-02T12:16:50;27.90;60.30
55313;DHT22;46892;45.668;11.756;2023-07-02T12:19:16;28.00;64.20
55313;DHT22;46892;45.668;11.756;2023-07-02T12:21:41;28.10;63.90
55313;DHT22;46892;45.668;11.756;2023-07-02T12:24:07;28.00;64.30
55313;DHT22;46892;45.668;11.756;2023-07-02T12:26:35;28.10;61.40
55313;DHT22;46892;45.668;11.756;2023-07-02T12:29:01;28.10;63.00
55313;DHT22;46892;45.668;11.756;2023-07-02T12:31:27;28.20;64.30
55313;DHT22;46892;45.668;11.756;2023-07-02T12:33:53;28.10;63.60
55313;DHT22;46892;45.668;11.756;2023-07-02T12:36:18;28.10;61.30
55313;DHT22;46892;45.668;11.756;2023-07-02T12:38:44;28.00;61.30
55313;DHT22;46892;45.668;11.756;2023-07-02T12:41:10;27.90;62.40
55313;DHT22;46892;45.668;11.756;2023-07-02T12:43:36;28.00;66.00
55313;DHT22;46892;45.668;11.756;2023-07-02T12:46:01;28.00;64.70
55313;DHT22;46892;45.668;11.756;2023-07-02T12:48:27;28.20;64.50
55313;DHT22;46892;45.668;11.756;2023-07-02T12:50:55;28.20;63.30
55313;DHT22;46892;45.668;11.756;2023-07-02T12:53:21;28.30;60.80
55313;DHT22;46892;45.668;11.756;2023-07-02T12:55:46;28.30;62.00
55313;DHT22;46892;45.668;11.756;2023-07-02T12:58:12;28.40;62.90
55313;DHT22;46892;45.668;11.756;2023-07-02T13:00:38;28.40;63.00
55313;DHT22;46892;45.668;11.756;2023-07-02T13:03:03;28.70;62.10
55313;DHT22;46892;45.668;11.756;2023-07-02T13:05:29;28.80;62.40
55313;DHT22;46892;45.668;11.756;2023-07-02T13:07:55;28.80;62.90
55313;DHT22;46892;45.668;11.756;2023-07-02T13:10:21;28.80;62.20
55313;DHT22;46892;45.668;11.756;2023-07-02T13:12:47;28.80;62.00
55313;DHT22;46892;45.668;11.756;2023-07-02T13:15:13;28.80;61.40
55313;DHT22;46892;45.668;11.756;2023-07-02T13:17:38;28.80;61.20
55313;DHT22;46892;45.668;11.756;2023-07-02T13:20:05;28.80;61.70
55313;DHT22;46892;45.668;11.756;2023-07-02T13:22:30;28.80;62.80
55313;DHT22;46892;45.668;11.756;2023-07-02T13:24:56;28.80;61.80
55313;DHT22;46892;45.668;11.756;2023-07-02T13:27:22;28.70;60.50
55313;DHT22;46892;45.668;11.756;2023-07-02T13:29:48;28.70;61.70
55313;DHT22;46892;45.668;11.756;2023-07-02T13:32:13;28.60;60.50
55313;DHT22;46892;45.668;11.756;2023-07-02T13:34:39;28.50;60.80
55313;DHT22;46892;45.668;11.756;2023-07-02T13:37:05;28.30;61.80
55313;DHT22;46892;45.668;11.756;2023-07-02T13:39:31;28.40;62.10
55313;DHT22;46892;45.668;11.756;2023-07-02T13:41:57;28.40;63.10
55313;DHT22;46892;45.668;11.756;2023-07-02T13:44:23;28.50;60.80
55313;DHT22;46892;45.668;11.756;2023-07-02T13:46:49;28.50;64.50
55313;DHT22;46892;45.668;11.756;2023-07-02T13:49:15;28.50;61.30
55313;DHT22;46892;45.668;11.756;2023-07-02T13:51:41;28.40;61.50
55313;DHT22;46892;45.668;11.756;2023-07-02T13:54:06;28.50;62.90
55313;DHT22;46892;45.668;11.756;2023-07-02T13:56:32;28.50;61.00
55313;DHT22;46892;45.668;11.756;2023-07-02T13:59:00;28.50;60.60
55313;DHT22;46892;45.668;11.756;2023-07-02T14:01:26;28.60;62.90
55313;DHT22;46892;45.668;11.756;2023-07-02T14:03:52;28.60;61.80
55313;DHT22;46892;45.668;11.756;2023-07-02T14:06:20;28.60;62.30
55313;DHT22;46892;45.668;11.756;2023-07-02T14:08:46;28.70;62.00
55313;DHT22;46892;45.668;11.756;2023-07-02T14:11:12;28.80;62.20
55313;DHT22;46892;45.668;11.756;2023-07-02T14:13:38;28.80;61.70
55313;DHT22;46892;45.668;11.756;2023-07-02T14:16:04;29.00;61.80
55313;DHT22;46892;45.668;11.756;2023-07-02T14:18:30;28.90;59.70
55313;DHT22;46892;45.668;11.756;2023-07-02T14:20:55;29.00;60.10
55313;DHT22;46892;45.668;11.756;2023-07-02T14:23:21;29.00;62.20
55313;DHT22;46892;45.668;11.756;2023-07-02T14:25:47;29.10;60.70
55313;DHT22;46892;45.668;11.756;2023-07-02T14:28:13;29.10;59.70
55313;DHT22;46892;45.668;11.756;2023-07-02T14:30:38;29.10;59.20
55313;DHT22;46892;45.668;11.756;2023-07-02T14:33:05;28.90;57.70
55313;DHT22;46892;45.668;11.756;2023-07-02T14:35:31;28.90;60.90
55313;DHT22;46892;45.668;11.756;2023-07-02T14:37:57;28.90;60.20
55313;DHT22;46892;45.668;11.756;2023-07-02T14:40:23;28.90;61.80
55313;DHT22;46892;45.668;11.756;2023-07-02T14:42:50;28.90;61.30
55313;DHT22;46892;45.668;11.756;2023-07-02T14:45:16;29.00;58.60
55313;DHT22;46892;45.668;11.756;2023-07-02T14:47:42;29.00;60.20
55313;DHT22;46892;45.668;11.756;2023-07-02T14:50:08;28.90;61.90
55313;DHT22;46892;45.668;11.756;2023-07-02T14:52:34;29.00;63.50
55313;DHT22;46892;45.668;11.756;2023-07-02T14:55:00;28.90;62.40
55313;DHT22;46892;45.668;11.756;2023-07-02T14:57:27;28.90;62.50
55313;DHT22;46892;45.668;11.756;2023-07-02T14:59:53;28.90;62.80
55313;DHT22;46892;45.668;11.756;2023-07-02T15:02:19;28.80;61.90
55313;DHT22;46892;45.668;11.756;2023-07-02T15:04:45;28.70;62.20
55313;DHT22;46892;45.668;11.756;2023-07-02T15:07:11;28.70;63.20
55313;DHT22;46892;45.668;11.756;2023-07-02T15:09:37;28.70;63.20
55313;DHT22;46892;45.668;11.756;2023-07-02T15:12:02;28.70;63.30
55313;DHT22;46892;45.668;11.756;2023-07-02T15:14:28;28.70;64.20
55313;DHT22;46892;45.668;11.756;2023-07-02T15:16:54;28.70;64.90
55313;DHT22;46892;45.668;11.756;2023-07-02T15:19:20;28.70;65.20